Погода Чемерына неделю

Гродненская область, Белоруссия

17 - 23 июля
  • 17июля
    Сегодня
    +18°
    +29°
    Ясно и безоблачно
    ВремяПогодаТемператураВлажностьДавлениеВетер, м/сВероятность осадков
    00:00Небольшая облачность+23°C73 %749 мм3.6 м/с2 %
    03:00Облачно с прояснениями+22°C79 %749 мм4.0 м/с14 %
    06:00Небольшая облачность+20°C96 %749 мм0.5 м/с28 %
    09:00Пасмурно, сплошная облачность+22°C89 %751 мм3.7 м/с14 %
    12:00Практически безоблачно+26°C70 %752 мм3.9 м/с16 %
    15:00Ясно и безоблачно+29°C50 %752 мм3.9 м/с2 %
    18:00Облачно с прояснениями+29°C49 %752 мм2.7 м/с1 %
    21:00Практически безоблачно+27°C68 %752 мм1.3 м/с2 %
  • 18июля
    Четверг
    +15°
    +27°
    Практически безоблачно
    ВремяПогодаТемператураВлажностьДавлениеВетер, м/сВероятность осадков
    00:00Облачно с прояснениями+22°C69 %753 мм2.6 м/с2 %
    03:00Облачно с прояснениями+21°C64 %752 мм3.5 м/с5 %
    06:00Пасмурно, сплошная облачность+19°C83 %754 мм1.5 м/с47 %
    09:00Ясно и безоблачно+21°C77 %754 мм2.2 м/с50 %
    12:00Практически безоблачно+25°C56 %754 мм3.4 м/с8 %
    15:00Практически безоблачно+26°C50 %754 мм4.5 м/с11 %
    18:00Ясно и безоблачно+26°C48 %753 мм4.9 м/с17 %
    21:00Практически безоблачно+24°C55 %754 мм3.2 м/с2 %
  • 19июля
    Пятница
    +14°
    +26°
    Ясно и безоблачно
    ВремяПогодаТемператураВлажностьДавлениеВетер, м/сВероятность осадков
    00:00Ясно и безоблачно+20°C62 %754 мм4.0 м/с2 %
    03:00Ясно и безоблачно+17°C77 %754 мм3.1 м/с2 %
    06:00Небольшая облачность+15°C88 %754 мм2.7 м/с2 %
    09:00Небольшая облачность+19°C76 %755 мм3.0 м/с2 %
    12:00Ясно и безоблачно+22°C54 %754 мм3.8 м/с2 %
    15:00Ясно и безоблачно+25°C46 %753 мм4.4 м/с2 %
    18:00Ясно и безоблачно+25°C45 %752 мм4.3 м/с2 %
    21:00Ясно и безоблачно+23°C55 %752 мм2.9 м/с2 %
  • 20июля
    Суббота
    +13°
    +24°
    Ясно и безоблачно
    ВремяПогодаТемператураВлажностьДавлениеВетер, м/сВероятность осадков
    00:00Ясно и безоблачно+18°C63 %752 мм3.1 м/с2 %
    03:00Ясно и безоблачно+16°C75 %751 мм2.4 м/с2 %
    06:00Ясно и безоблачно+14°C83 %751 мм2.3 м/с2 %
    09:00Небольшая облачность+19°C64 %751 мм2.5 м/с2 %
    12:00Небольшая облачность+22°C51 %750 мм3.1 м/с2 %
    15:00Ясно и безоблачно+24°C42 %749 мм2.4 м/с2 %
    18:00Ясно и безоблачно+24°C41 %748 мм2.0 м/с2 %
    21:00Ясно и безоблачно+21°C61 %748 мм1.5 м/с2 %
  • 21июля
    Воскресенье
    +15°
    +26°
    Практически безоблачно
    ВремяПогодаТемператураВлажностьДавлениеВетер, м/сВероятность осадков
    00:00Ясно и безоблачно+17°C71 %747 мм2.1 м/с2 %
    03:00Ясно и безоблачно+16°C73 %747 мм2.0 м/с2 %
    06:00Ясно и безоблачно+14°C82 %747 мм1.7 м/с2 %
    09:00Ясно и безоблачно+21°C62 %747 мм1.4 м/с2 %
    12:00Практически безоблачно+24°C46 %747 мм2.5 м/с18 %
    15:00Практически безоблачно+25°C43 %746 мм2.9 м/с20 %
    18:00Практически безоблачно+25°C43 %745 мм2.6 м/с11 %
    21:00Ясно и безоблачно+22°C66 %745 мм1.0 м/с3 %
Мы используем cookies
Соглашаюсь